createdAt,value
2019-04-23T00:00:54.807Z,80.90
2019-04-23T00:03:25.866Z,80.50
2019-04-23T00:05:57.932Z,79.90
2019-04-23T00:08:26.706Z,79.30
2019-04-23T00:13:39.046Z,79.80
2019-04-23T00:16:21.883Z,80.50
2019-04-23T00:21:26.687Z,82.00
2019-04-23T00:24:07.680Z,82.10
2019-04-23T00:26:30.482Z,82.00
2019-04-23T00:29:10.449Z,82.80
2019-04-23T00:31:37.695Z,82.80
2019-04-23T00:34:04.224Z,82.80
2019-04-23T00:36:53.240Z,82.50
2019-04-23T00:39:13.916Z,81.70
2019-04-23T00:44:15.197Z,82.30
2019-04-23T00:46:45.159Z,81.90
2019-04-23T00:49:19.843Z,81.70
2019-04-23T00:54:17.782Z,81.60
2019-04-23T00:57:07.331Z,81.20
2019-04-23T00:59:20.670Z,81.60
2019-04-23T01:01:56.913Z,81.30
2019-04-23T01:04:27.475Z,81.30
2019-04-23T01:07:02.545Z,81.00
2019-04-23T01:09:29.396Z,81.20
2019-04-23T01:12:07.565Z,82.20
2019-04-23T01:14:36.059Z,82.20
2019-04-23T01:17:11.383Z,82.50
2019-04-23T01:19:49.537Z,82.10
2019-04-23T01:22:04.373Z,81.80
2019-04-23T01:24:46.687Z,81.30
2019-04-23T01:27:51.656Z,81.10
2019-04-23T01:30:26.641Z,80.50
2019-04-23T01:32:52.031Z,80.10
2019-04-23T01:35:20.234Z,80.90
2019-04-23T01:37:52.417Z,80.90
2019-04-23T01:42:58.599Z,81.20
2019-04-23T01:45:48.126Z,81.10
2019-04-23T01:48:19.939Z,81.20
2019-04-23T01:50:46.386Z,81.20
2019-04-23T01:53:14.951Z,81.30
2019-04-23T01:58:36.810Z,81.50
2019-04-23T02:00:47.523Z,81.20
2019-04-23T02:03:22.629Z,81.10
2019-04-23T02:06:07.084Z,81.20
2019-04-23T02:11:11.527Z,80.30
2019-04-23T02:13:53.325Z,80.50
2019-04-23T02:16:21.434Z,80.50
2019-04-23T02:21:22.603Z,79.80
2019-04-23T02:23:57.067Z,80.60
2019-04-23T02:26:45.012Z,80.10
2019-04-23T02:29:29.881Z,80.60
2019-04-23T02:31:52.952Z,81.20
2019-04-23T02:34:23.606Z,80.60
2019-04-23T02:36:51.097Z,80.30
2019-04-23T02:39:19.879Z,80.80
2019-04-23T02:41:55.964Z,80.30
2019-04-23T02:46:59.826Z,79.70
2019-04-23T02:49:32.304Z,79.80
2019-04-23T02:56:57.304Z,78.70
2019-04-23T03:04:50.303Z,77.70
2019-04-23T03:07:32.965Z,78.20
2019-04-23T03:09:51.769Z,77.50
2019-04-23T03:15:14.469Z,77.30
2019-04-23T03:17:37.082Z,76.60
2019-04-23T03:20:18.260Z,77.00
2019-04-23T03:25:31.551Z,77.80
2019-04-23T03:27:56.486Z,78.50
2019-04-23T03:32:05.755Z,78.50
2019-04-23T03:38:43.405Z,78.80
2019-04-23T03:43:33.651Z,79.70
2019-04-23T03:46:12.414Z,79.70
2019-04-23T03:50:58.193Z,79.70
2019-04-23T03:58:44.502Z,78.80
2019-04-23T04:01:16.223Z,79.10
2019-04-23T04:04:18.294Z,78.80
2019-04-23T04:06:50.132Z,78.60
2019-04-23T04:08:50.800Z,78.40
2019-04-23T04:11:16.379Z,78.30
2019-04-23T04:13:50.493Z,79.20
2019-04-23T04:16:42.613Z,79.10
2019-04-23T04:18:55.271Z,78.50
2019-04-23T04:21:28.123Z,78.60
2019-04-23T04:24:05.453Z,79.30
2019-04-23T04:26:35.192Z,80.00
2019-04-23T04:28:58.820Z,80.40
2019-04-23T04:31:42.246Z,81.60
2019-04-23T04:34:16.488Z,81.60
2019-04-23T04:36:45.592Z,82.00
2019-04-23T04:41:40.559Z,82.00
2019-04-23T04:44:37.396Z,81.60
2019-04-23T04:54:14.286Z,82.80
2019-04-23T04:56:42.658Z,82.60
2019-04-23T05:07:02.246Z,82.70
2019-04-23T05:09:34.824Z,82.90
2019-04-23T05:12:01.107Z,82.40
2019-04-23T05:17:00.167Z,81.30
2019-04-23T05:22:07.018Z,81.20
2019-04-23T05:27:02.956Z,82.00
2019-04-23T05:29:54.642Z,81.30
2019-04-23T05:32:04.445Z,81.70
2019-04-23T05:37:06.838Z,80.70
2019-04-23T05:39:39.294Z,79.90
2019-04-23T05:42:10.671Z,80.00
2019-04-23T05:47:20.378Z,79.70
2019-04-23T05:52:17.782Z,78.90
2019-04-23T05:54:56.299Z,78.70
2019-04-23T05:57:20.023Z,78.70
2019-04-23T05:59:54.809Z,78.80
2019-04-23T06:02:26.319Z,79.50
2019-04-23T06:05:01.583Z,79.70
2019-04-23T06:15:26.765Z,78.90
2019-04-23T06:17:43.074Z,79.00
2019-04-23T06:25:31.130Z,80.40
2019-04-23T06:28:00.063Z,80.50
2019-04-23T06:31:05.002Z,80.70
2019-04-23T06:32:51.556Z,81.40
2019-04-23T06:35:22.170Z,82.10
2019-04-23T06:40:26.919Z,82.60
2019-04-23T06:43:05.319Z,83.40
2019-04-23T06:50:47.151Z,85.90
2019-04-23T06:53:04.570Z,85.60
2019-04-23T06:55:44.045Z,86.30
2019-04-23T06:58:24.031Z,86.20
2019-04-23T07:00:52.470Z,86.10
2019-04-23T07:03:25.098Z,86.00
2019-04-23T07:13:57.526Z,85.60
2019-04-23T07:16:28.249Z,86.10
2019-04-23T07:18:48.690Z,86.30
2019-04-23T07:21:22.433Z,87.00
2019-04-23T07:26:29.876Z,86.80
2019-04-23T07:28:53.244Z,86.40
2019-04-23T07:31:28.377Z,86.00
2019-04-23T07:36:36.175Z,85.00
2019-04-23T07:47:16.263Z,85.30
2019-04-23T07:52:13.263Z,84.70
2019-04-23T07:54:41.354Z,84.10
2019-04-23T07:57:15.241Z,82.80
2019-04-23T07:59:43.190Z,82.80
2019-04-23T08:02:16.004Z,82.30
2019-04-23T08:04:56.529Z,82.70
2019-04-23T08:07:17.474Z,81.50
2019-04-23T08:09:48.565Z,81.90
2019-04-23T08:14:53.622Z,83.10
2019-04-23T08:19:56.036Z,83.40
2019-04-23T08:22:28.734Z,83.70
2019-04-23T08:27:34.781Z,82.60
2019-04-23T08:30:06.213Z,82.10
2019-04-23T08:32:41.843Z,82.30
2019-04-23T08:35:26.745Z,82.20
2019-04-23T08:38:04.514Z,82.10
2019-04-23T08:40:22.833Z,82.00
2019-04-23T08:43:07.489Z,81.70
2019-04-23T08:48:07.483Z,81.70
2019-04-23T08:50:50.710Z,82.20
2019-04-23T08:53:18.294Z,81.30
2019-04-23T08:55:44.287Z,81.00
2019-04-23T08:58:13.379Z,81.80
2019-04-23T09:00:47.662Z,83.00
2019-04-23T09:03:22.003Z,82.00
2019-04-23T09:08:24.561Z,81.70
2019-04-23T09:10:56.722Z,82.00
2019-04-23T09:20:55.271Z,83.90
2019-04-23T09:23:34.919Z,84.00
2019-04-23T09:25:57.845Z,83.30
2019-04-23T09:31:14.233Z,83.20
2019-04-23T09:33:51.933Z,82.80
2019-04-23T09:36:26.256Z,81.80
2019-04-23T09:38:55.780Z,81.60
2019-04-23T09:41:27.386Z,80.30
2019-04-23T09:44:27.441Z,79.10
2019-04-23T09:49:20.911Z,77.60
2019-04-23T09:51:51.326Z,78.10
2019-04-23T09:54:23.770Z,78.90
2019-04-23T09:56:54.095Z,78.70
2019-04-23T09:59:34.166Z,78.90
2019-04-23T10:01:49.878Z,78.60
2019-04-23T10:04:16.978Z,77.80
2019-04-23T10:06:38.955Z,78.50
2019-04-23T10:09:10.124Z,78.20
2019-04-23T10:11:40.917Z,77.50
2019-04-23T10:14:12.421Z,77.50
2019-04-23T10:16:43.384Z,78.70
2019-04-23T10:19:15.034Z,79.00
2019-04-23T10:21:45.211Z,79.60
2019-04-23T10:24:15.242Z,78.70
2019-04-23T10:26:46.093Z,79.30
2019-04-23T10:29:20.577Z,79.20
2019-04-23T10:31:51.393Z,79.80
2019-04-23T10:34:23.140Z,80.40
2019-04-23T10:36:53.624Z,80.80
2019-04-23T10:39:28.302Z,82.10
2019-04-23T10:41:57.088Z,82.00
2019-04-23T10:44:32.984Z,81.60
2019-04-23T10:47:38.599Z,81.50
2019-04-23T10:50:38.713Z,81.90
2019-04-23T10:53:09.581Z,82.10
2019-04-23T10:55:41.069Z,83.20
2019-04-23T10:58:08.383Z,84.20
2019-04-23T11:00:40.575Z,83.90
2019-04-23T11:03:22.421Z,84.30
2019-04-23T11:05:53.828Z,84.50
2019-04-23T11:08:11.247Z,84.00
2019-04-23T11:10:47.076Z,83.10
2019-04-23T11:16:41.981Z,84.60
2019-04-23T11:18:38.405Z,86.40
2019-04-23T11:21:05.293Z,85.90
2019-04-23T11:23:34.517Z,84.50
2019-04-23T11:26:09.702Z,85.50
2019-04-23T11:31:31.006Z,85.40
2019-04-23T11:34:06.051Z,85.30
2019-04-23T11:38:22.065Z,84.20
2019-04-23T11:41:37.937Z,83.50
2019-04-23T11:44:52.952Z,83.40
2019-04-23T11:49:19.863Z,81.80
2019-04-23T11:51:54.402Z,82.20
2019-04-23T11:57:15.040Z,84.60
2019-04-23T11:59:31.299Z,84.20
2019-04-23T12:01:56.315Z,84.20
2019-04-23T12:07:22.944Z,84.30
2019-04-23T12:12:23.771Z,85.90
2019-04-23T12:15:07.380Z,85.70
2019-04-23T12:17:55.912Z,85.90
2019-04-23T12:23:03.894Z,85.90
2019-04-23T12:25:26.748Z,86.80
2019-04-23T12:27:42.220Z,86.60
2019-04-23T12:30:34.266Z,85.70
2019-04-23T12:33:02.933Z,85.80
2019-04-23T12:35:35.209Z,85.20
2019-04-23T12:38:17.194Z,84.80
2019-04-23T12:40:56.423Z,84.50
2019-04-23T12:43:14.511Z,84.60
2019-04-23T12:46:02.159Z,83.80
2019-04-23T12:48:33.913Z,84.40
2019-04-23T12:53:30.536Z,83.40
2019-04-23T12:56:01.963Z,82.70
2019-04-23T12:58:34.208Z,82.30
2019-04-23T13:01:13.961Z,81.70
2019-04-23T13:03:45.796Z,81.90
2019-04-23T13:06:22.214Z,82.30
2019-04-23T13:09:04.659Z,82.70
2019-04-23T13:11:34.559Z,84.00
2019-04-23T13:14:07.988Z,84.40
2019-04-23T13:16:46.472Z,84.90
2019-04-23T13:19:23.248Z,84.60
2019-04-23T13:24:25.983Z,87.60
2019-04-23T13:26:56.805Z,88.50
2019-04-23T13:29:38.083Z,89.20
2019-04-23T13:31:59.196Z,88.50
2019-04-23T13:34:41.430Z,90.10
2019-04-23T13:37:14.245Z,90.00
2019-04-23T13:39:39.631Z,90.00
2019-04-23T13:44:42.667Z,90.20
2019-04-23T13:47:19.628Z,90.00
2019-04-23T13:49:52.653Z,89.60
2019-04-23T13:52:46.655Z,88.80
2019-04-23T13:57:50.959Z,88.40
2019-04-23T13:59:48.410Z,89.00
2019-04-23T14:02:34.574Z,88.30
2019-04-23T14:07:48.541Z,88.40
2019-04-23T14:10:16.995Z,88.90
2019-04-23T14:12:53.682Z,89.60
2019-04-23T14:18:22.700Z,89.60
2019-04-23T14:20:34.921Z,88.90
2019-04-23T14:25:51.003Z,89.60
2019-04-23T14:35:56.344Z,88.50
2019-04-23T14:38:32.150Z,87.40
2019-04-23T14:41:07.760Z,87.10
2019-04-23T14:46:31.775Z,87.70
2019-04-23T14:48:49.633Z,88.20
2019-04-23T14:53:45.745Z,87.50
2019-04-23T14:58:59.890Z,87.00
2019-04-23T15:14:06.131Z,87.10
2019-04-23T15:16:39.199Z,87.60
2019-04-23T15:19:23.165Z,87.70
2019-04-23T15:24:13.872Z,87.50
2019-04-23T15:28:56.702Z,87.50
2019-04-23T15:34:20.937Z,87.50
2019-04-23T15:40:15.164Z,86.60
2019-04-23T15:41:59.304Z,86.90
2019-04-23T15:44:16.421Z,86.20
2019-04-23T15:46:57.006Z,86.20
2019-04-23T15:49:26.577Z,86.30
2019-04-23T15:52:04.046Z,86.10
2019-04-23T15:54:34.928Z,85.70
2019-04-23T15:57:02.445Z,85.20
2019-04-23T16:01:41.980Z,84.80
2019-04-23T16:04:09.821Z,85.20
2019-04-23T16:06:41.530Z,84.20
2019-04-23T16:09:36.219Z,84.10
2019-04-23T16:12:03.146Z,83.60
2019-04-23T16:14:54.598Z,84.10
2019-04-23T16:17:16.844Z,84.60
2019-04-23T16:20:06.408Z,83.50
2019-04-23T16:22:18.783Z,84.40
2019-04-23T16:25:00.977Z,84.40
2019-04-23T16:27:19.948Z,84.40
2019-04-23T16:30:12.836Z,84.30
2019-04-23T16:32:52.319Z,84.70
2019-04-23T16:35:28.934Z,84.30
2019-04-23T16:38:01.811Z,84.60
2019-04-23T16:40:31.877Z,84.60
2019-04-23T16:42:59.687Z,84.40
2019-04-23T16:45:27.056Z,84.70
2019-04-23T16:47:59.569Z,85.70
2019-04-23T16:50:32.727Z,85.70
2019-04-23T16:53:09.222Z,86.60
2019-04-23T16:58:16.542Z,86.90
2019-04-23T17:00:43.669Z,87.30
2019-04-23T17:08:37.701Z,86.80
2019-04-23T17:13:18.344Z,86.30
2019-04-23T17:18:26.270Z,86.50
2019-04-23T17:20:50.596Z,86.30
2019-04-23T17:23:31.704Z,85.70
2019-04-23T17:31:18.353Z,85.50
2019-04-23T17:38:55.316Z,85.10
2019-04-23T17:41:38.790Z,84.40
2019-04-23T17:44:25.186Z,83.80
2019-04-23T17:46:34.183Z,83.50
2019-04-23T17:51:34.402Z,84.20
2019-04-23T17:56:56.021Z,84.70
2019-04-23T18:02:08.190Z,85.30
2019-04-23T18:06:56.294Z,85.20
2019-04-23T18:09:31.645Z,84.90
2019-04-23T18:14:18.143Z,85.80
2019-04-23T18:17:07.167Z,85.80
2019-04-23T18:19:24.738Z,86.20
2019-04-23T18:22:18.278Z,86.90
2019-04-23T18:25:05.782Z,87.20
2019-04-23T18:27:30.972Z,87.10
2019-04-23T18:30:07.937Z,87.00
2019-04-23T18:32:44.657Z,86.60
2019-04-23T18:35:19.542Z,87.00
2019-04-23T18:37:49.297Z,86.00
2019-04-23T18:40:21.489Z,85.80
2019-04-23T18:43:02.588Z,86.10
2019-04-23T18:45:31.949Z,85.80
2019-04-23T18:47:54.843Z,85.90
2019-04-23T18:50:43.227Z,86.10
2019-04-23T18:53:02.834Z,86.00
2019-04-23T18:55:45.109Z,85.90
2019-04-23T18:58:04.129Z,85.80
2019-04-23T19:03:21.857Z,86.20
2019-04-23T19:06:10.055Z,86.10
2019-04-23T19:08:55.307Z,85.80
2019-04-23T19:11:13.666Z,85.70
2019-04-23T19:13:42.302Z,85.30
2019-04-23T19:16:07.405Z,85.80
2019-04-23T19:21:31.518Z,85.80
2019-04-23T19:23:50.847Z,86.30
2019-04-23T19:26:30.921Z,86.80
2019-04-23T19:28:55.532Z,86.70
2019-04-23T19:31:53.254Z,87.00
2019-04-23T19:34:22.480Z,86.70
2019-04-23T19:36:54.346Z,86.00
2019-04-23T19:39:24.579Z,85.90
2019-04-23T19:41:57.709Z,85.70
2019-04-23T19:49:31.638Z,86.10
2019-04-23T19:51:53.231Z,85.50
2019-04-23T19:57:02.015Z,85.40
2019-04-23T19:59:43.241Z,85.10
2019-04-23T20:04:37.308Z,85.00
2019-04-23T20:12:09.452Z,85.00
2019-04-23T20:17:34.090Z,85.30
2019-04-23T20:22:29.106Z,86.40
2019-04-23T20:25:10.006Z,87.60
2019-04-23T20:35:16.434Z,89.10
2019-04-23T20:38:18.992Z,89.60
2019-04-23T20:40:30.590Z,89.40
2019-04-23T20:43:01.767Z,89.90
2019-04-23T20:45:27.650Z,89.90
2019-04-23T20:48:02.188Z,89.90
2019-04-23T20:50:34.485Z,89.80
2019-04-23T20:52:59.610Z,90.00
2019-04-23T20:58:31.575Z,90.10
2019-04-23T21:01:07.185Z,90.10
2019-04-23T21:06:07.523Z,90.90
2019-04-23T21:11:05.259Z,90.90
2019-04-23T21:14:02.010Z,90.80
2019-04-23T21:16:15.265Z,91.10
2019-04-23T21:19:02.511Z,91.10
2019-04-23T21:21:17.942Z,91.20
2019-04-23T21:23:50.389Z,91.30
2019-04-23T21:26:22.847Z,91.40
2019-04-23T21:31:27.481Z,91.30
2019-04-23T21:34:17.380Z,91.30
2019-04-23T21:39:20.224Z,91.20
2019-04-23T21:49:48.687Z,91.10
2019-04-23T21:54:21.312Z,91.20
2019-04-23T21:56:54.187Z,91.20
2019-04-23T21:59:27.438Z,91.10
2019-04-23T22:02:01.383Z,91.20
2019-04-23T22:07:29.270Z,91.40
2019-04-23T22:12:10.269Z,91.20
2019-04-23T22:14:47.505Z,90.90
2019-04-23T22:17:19.788Z,90.80
2019-04-23T22:19:58.575Z,90.80
2019-04-23T22:22:20.420Z,90.70
2019-04-23T22:27:20.484Z,90.60
2019-04-23T22:29:49.153Z,90.50
2019-04-23T22:32:34.328Z,90.50
2019-04-23T22:35:00.385Z,90.50
2019-04-23T22:37:48.108Z,90.30
2019-04-23T22:39:58.881Z,90.50
2019-04-23T22:42:54.210Z,90.80
2019-04-23T22:45:17.329Z,90.80
2019-04-23T22:47:39.281Z,90.60
2019-04-23T22:50:05.889Z,90.40
2019-04-23T22:52:40.701Z,90.20
2019-04-23T22:55:12.698Z,90.30
2019-04-23T22:57:58.738Z,90.30
2019-04-23T23:05:56.218Z,89.90
2019-04-23T23:08:16.575Z,89.60
2019-04-23T23:10:55.130Z,89.60
2019-04-23T23:13:18.308Z,89.60
2019-04-23T23:15:54.508Z,89.70
2019-04-23T23:23:21.337Z,90.00
2019-04-23T23:26:00.735Z,90.00
2019-04-23T23:28:34.973Z,90.00
2019-04-23T23:31:08.602Z,90.00
2019-04-23T23:33:30.581Z,90.10
2019-04-23T23:36:10.431Z,90.60
2019-04-23T23:38:41.764Z,91.10
2019-04-23T23:43:43.909Z,91.10
2019-04-23T23:48:41.831Z,91.00
2019-04-23T23:51:17.405Z,91.00
2019-04-23T23:56:14.246Z,90.90
2019-04-23T23:58:58.280Z,90.80
